Time;durP1;ratioP1;P1;durP2;ratioP2;P2;SDS_P1;SDS_P2;PMS_P1;PMS_P2;Temp;Humidity;BMP_temperature;BMP_pressure;BME280_temperature;BME280_humidity;BME280_pressure;Samples;Min_cycle;Max_cycle;Signal;HPM_P1;HPM_P2
2022/05/21 00:00:11;;;;;;;6.72;3.45;;;;;;;;;;5028907;28;20522;-77
2022/05/21 00:02:37;;;;;;;23.98;4.32;;;;;;;;;;5022555;28;20471;-77
2022/05/21 00:05:04;;;;;;;9.07;3.13;;;;;;;;;;5056596;28;20025;-76
2022/05/21 00:07:29;;;;;;;4.25;2.60;;;;;;;;;;5045644;28;20025;-77
2022/05/21 00:09:55;;;;;;;6.03;2.80;;;;;;;;;;5067459;28;20032;-75
2022/05/21 00:12:20;;;;;;;4.32;2.85;;;;;;;;;;5057696;28;20416;-76
2022/05/21 00:14:46;;;;;;;5.32;2.30;;;;;;;;;;5071773;28;20483;-75
2022/05/21 00:17:11;;;;;;;3.80;2.30;;;;;;;;;;5074344;28;20044;-77
2022/05/21 00:19:37;;;;;;;3.88;2.33;;;;;;;;;;5062311;28;20086;-76
2022/05/21 00:22:02;;;;;;;5.30;1.85;;;;;;;;;;5068448;28;20071;-76
2022/05/21 00:24:28;;;;;;;4.57;2.10;;;;;;;;;;5057285;28;20021;-76
2022/05/21 00:26:53;;;;;;;2.58;1.65;;;;;;;;;;5068073;28;20021;-75
2022/05/21 00:29:20;;;;;;;5.35;1.75;;;;;;;;;;5064337;28;20111;-76
2022/05/21 00:31:46;;;;;;;4.22;1.63;;;;;;;;;;5026481;28;20500;-75
2022/05/21 00:34:11;;;;;;;8.80;1.80;;;;;;;;;;5068808;28;20059;-77
2022/05/21 00:36:38;;;;;;;4.32;1.70;;;;;;;;;;5039787;28;20507;-76
2022/05/21 00:39:03;;;;;;;4.05;1.95;;;;;;;;;;5060722;28;20058;-77
2022/05/21 00:41:30;;;;;;;5.88;1.63;;;;;;;;;;5035823;28;20029;-76
2022/05/21 00:43:57;;;;;;;3.33;1.70;;;;;;;;;;5068031;28;20059;-75
2022/05/21 00:46:24;;;;;;;11.63;2.50;;;;;;;;;;5037400;28;20083;-77
2022/05/21 00:48:56;;;;;;;4.28;1.70;;;;;;;;;;5050600;28;20035;-76
2022/05/21 00:51:24;;;;;;;4.10;1.83;;;;;;;;;;5063283;28;20028;-75
2022/05/21 00:53:51;;;;;;;4.70;2.00;;;;;;;;;;5059439;28;20033;-76
2022/05/21 00:56:18;;;;;;;8.60;2.10;;;;;;;;;;5069913;28;20032;-75
2022/05/21 01:01:32;;;;;;;4.88;1.55;;;;;;;;;;5064174;28;20083;-75
2022/05/21 01:03:57;;;;;;;2.67;1.27;;;;;;;;;;5066857;28;20055;-77
2022/05/21 01:06:22;;;;;;;3.20;1.50;;;;;;;;;;5056966;28;20480;-75
2022/05/21 01:08:48;;;;;;;2.75;1.40;;;;;;;;;;5066958;28;20033;-76
2022/05/21 01:11:15;;;;;;;5.45;1.30;;;;;;;;;;5062962;28;20070;-76
2022/05/21 01:13:41;;;;;;;2.38;1.40;;;;;;;;;;5060930;28;20538;-76
2022/05/21 01:16:08;;;;;;;7.55;1.45;;;;;;;;;;5038014;28;20032;-76
2022/05/21 01:18:33;;;;;;;2.63;1.48;;;;;;;;;;5038440;28;20028;-76
2022/05/21 01:20:59;;;;;;;4.72;1.70;;;;;;;;;;5067450;28;20260;-76
2022/05/21 01:23:26;;;;;;;2.85;1.85;;;;;;;;;;5065082;28;20025;-76
2022/05/21 01:25:52;;;;;;;6.15;3.15;;;;;;;;;;5060907;28;20033;-76
2022/05/21 01:28:19;;;;;;;9.73;2.60;;;;;;;;;;5075408;28;20047;-75
2022/05/21 01:30:49;;;;;;;4.00;2.65;;;;;;;;;;5065246;28;20025;-75
2022/05/21 01:33:17;;;;;;;4.13;2.60;;;;;;;;;;5053096;28;20033;-76
2022/05/21 01:35:43;;;;;;;4.63;2.28;;;;;;;;;;5071937;28;20099;-76
2022/05/21 01:38:09;;;;;;;5.72;2.55;;;;;;;;;;5061795;28;20028;-75
2022/05/21 01:40:35;;;;;;;4.63;3.10;;;;;;;;;;5072680;28;20028;-77
2022/05/21 01:45:45;;;;;;;4.47;2.47;;;;;;;;;;5059916;28;20021;-75
2022/05/21 01:48:11;;;;;;;6.72;3.00;;;;;;;;;;5069520;28;20028;-75
2022/05/21 01:50:37;;;;;;;7.30;3.20;;;;;;;;;;5056460;28;20475;-77
2022/05/21 01:53:03;;;;;;;5.72;2.63;;;;;;;;;;5047414;28;20107;-76
2022/05/21 01:55:28;;;;;;;4.95;2.63;;;;;;;;;;5063472;28;20051;-76
2022/05/21 01:57:54;;;;;;;7.78;2.90;;;;;;;;;;5058228;28;20502;-78
2022/05/21 02:00:19;;;;;;;4.03;2.47;;;;;;;;;;5069550;28;20430;-75
2022/05/21 02:02:45;;;;;;;5.50;2.78;;;;;;;;;;5057151;28;20115;-76
2022/05/21 02:05:10;;;;;;;4.57;2.67;;;;;;;;;;5034421;28;20264;-77
2022/05/21 02:07:36;;;;;;;4.05;2.42;;;;;;;;;;5065442;28;20032;-75
2022/05/21 02:10:03;;;;;;;4.13;2.80;;;;;;;;;;5078949;28;20044;-76
2022/05/21 02:12:28;;;;;;;5.18;2.50;;;;;;;;;;5074020;28;20021;-76
2022/05/21 02:14:57;;;;;;;6.13;2.72;;;;;;;;;;5073485;28;20040;-78
2022/05/21 02:17:23;;;;;;;5.20;2.50;;;;;;;;;;5070303;28;20013;-77
2022/05/21 02:19:49;;;;;;;4.90;2.58;;;;;;;;;;5055828;28;20102;-77
2022/05/21 02:22:15;;;;;;;6.40;3.35;;;;;;;;;;5073841;28;20063;-76
2022/05/21 02:24:40;;;;;;;7.10;3.15;;;;;;;;;;5038281;28;20023;-74
2022/05/21 02:27:14;;;;;;;6.47;2.90;;;;;;;;;;5063202;28;20025;-77
2022/05/21 02:29:40;;;;;;;7.22;2.60;;;;;;;;;;5014008;28;20024;-75
2022/05/21 02:32:06;;;;;;;6.03;2.80;;;;;;;;;;5056225;28;20033;-76
2022/05/21 02:34:31;;;;;;;7.13;3.80;;;;;;;;;;5050189;28;20553;-78
2022/05/21 02:39:41;;;;;;;6.60;3.00;;;;;;;;;;5059153;28;20029;-76
2022/05/21 02:44:51;;;;;;;7.40;3.05;;;;;;;;;;5072008;28;20128;-75
2022/05/21 02:47:16;;;;;;;5.70;2.80;;;;;;;;;;5044864;28;20524;-76
2022/05/21 02:49:42;;;;;;;5.45;3.55;;;;;;;;;;5030587;28;20051;-75
2022/05/21 02:52:07;;;;;;;5.53;2.80;;;;;;;;;;5063807;28;20037;-75
2022/05/21 02:54:32;;;;;;;5.43;2.67;;;;;;;;;;5069192;28;20028;-77
2022/05/21 02:56:58;;;;;;;6.05;2.50;;;;;;;;;;5074166;28;20060;-75
2022/05/21 02:59:23;;;;;;;4.65;2.60;;;;;;;;;;5061458;28;20035;-76
2022/05/21 03:01:49;;;;;;;5.55;2.30;;;;;;;;;;5030684;28;20484;-76
2022/05/21 03:04:14;;;;;;;6.13;2.75;;;;;;;;;;5056940;28;20080;-77
2022/05/21 03:06:40;;;;;;;4.90;2.88;;;;;;;;;;5078078;28;20029;-76
2022/05/21 03:11:50;;;;;;;7.28;2.70;;;;;;;;;;5055001;28;20059;-78
2022/05/21 03:14:15;;;;;;;5.13;3.28;;;;;;;;;;5086200;28;20028;-75
2022/05/21 03:16:41;;;;;;;5.53;3.10;;;;;;;;;;5067117;28;20044;-77
2022/05/21 03:19:06;;;;;;;4.55;3.15;;;;;;;;;;5075554;28;20056;-76
2022/05/21 03:21:32;;;;;;;6.07;3.00;;;;;;;;;;5082581;28;20033;-76
2022/05/21 03:23:58;;;;;;;13.57;3.85;;;;;;;;;;5088970;28;20017;-76
2022/05/21 03:26:24;;;;;;;8.70;2.92;;;;;;;;;;5091422;28;20092;-76
2022/05/21 03:28:49;;;;;;;9.05;2.78;;;;;;;;;;5081404;28;20040;-76
2022/05/21 03:31:15;;;;;;;4.60;3.00;;;;;;;;;;5086779;28;20094;-76
2022/05/21 03:33:40;;;;;;;8.02;2.72;;;;;;;;;;5073265;28;20028;-76
2022/05/21 03:36:08;;;;;;;6.68;2.58;;;;;;;;;;5072242;28;20033;-77
2022/05/21 03:38:34;;;;;;;3.97;2.28;;;;;;;;;;5075287;28;20025;-76
2022/05/21 03:41:00;;;;;;;5.25;1.80;;;;;;;;;;5064688;28;20032;-77
2022/05/21 03:43:25;;;;;;;4.10;1.77;;;;;;;;;;5088487;28;20041;-75
2022/05/21 03:45:51;;;;;;;3.72;1.70;;;;;;;;;;5075653;28;20036;-75
2022/05/21 03:48:17;;;;;;;3.13;1.70;;;;;;;;;;5082980;28;20036;-74
2022/05/21 03:50:43;;;;;;;3.15;1.85;;;;;;;;;;5093502;28;20076;-76
2022/05/21 03:53:09;;;;;;;4.68;1.75;;;;;;;;;;5078889;28;20078;-75
2022/05/21 03:55:35;;;;;;;2.53;1.60;;;;;;;;;;5031049;28;20094;-76
2022/05/21 03:58:00;;;;;;;8.85;1.85;;;;;;;;;;5071482;28;20464;-75
2022/05/21 04:00:26;;;;;;;4.68;1.77;;;;;;;;;;5059233;28;20036;-75
2022/05/21 04:02:51;;;;;;;3.13;1.58;;;;;;;;;;5051416;28;20047;-75
2022/05/21 04:05:17;;;;;;;2.65;1.60;;;;;;;;;;5064703;28;20035;-74
2022/05/21 04:07:43;;;;;;;4.45;2.00;;;;;;;;;;5059780;28;20117;-75
2022/05/21 04:10:09;;;;;;;3.42;1.60;;;;;;;;;;5078894;28;20035;-75
2022/05/21 04:12:34;;;;;;;2.90;1.70;;;;;;;;;;5042352;28;20052;-75
2022/05/21 04:15:01;;;;;;;5.80;1.63;;;;;;;;;;5038783;28;20118;-75
2022/05/21 04:17:26;;;;;;;5.95;1.60;;;;;;;;;;5047525;28;20067;-75
2022/05/21 04:19:52;;;;;;;2.50;1.55;;;;;;;;;;5060855;28;20043;-75
2022/05/21 04:22:18;;;;;;;4.75;1.60;;;;;;;;;;5053089;28;20497;-76
2022/05/21 04:24:43;;;;;;;5.72;2.05;;;;;;;;;;5041113;28;20024;-76
2022/05/21 04:27:09;;;;;;;5.13;1.92;;;;;;;;;;5036315;28;20025;-75
2022/05/21 04:29:35;;;;;;;6.30;1.73;;;;;;;;;;5064629;28;20066;-76
2022/05/21 04:32:00;;;;;;;4.03;1.83;;;;;;;;;;5041087;28;20029;-75
2022/05/21 04:34:26;;;;;;;3.40;1.80;;;;;;;;;;5070278;28;20085;-76
2022/05/21 04:36:51;;;;;;;4.65;2.00;;;;;;;;;;5058453;28;20028;-76
2022/05/21 04:39:17;;;;;;;7.72;2.13;;;;;;;;;;5030491;28;20090;-76
2022/05/21 04:41:43;;;;;;;4.38;1.90;;;;;;;;;;5048730;28;20488;-76
2022/05/21 04:44:09;;;;;;;6.57;1.70;;;;;;;;;;5052324;28;20456;-75
2022/05/21 04:46:35;;;;;;;3.75;1.90;;;;;;;;;;5069712;28;20481;-76
2022/05/21 04:49:03;;;;;;;5.13;1.80;;;;;;;;;;5060427;28;20033;-75
2022/05/21 04:51:29;;;;;;;5.05;1.52;;;;;;;;;;5044670;28;20033;-76
2022/05/21 04:53:54;;;;;;;3.58;1.55;;;;;;;;;;5066580;28;20387;-75
2022/05/21 04:56:19;;;;;;;4.05;1.52;;;;;;;;;;5039483;28;20389;-76
2022/05/21 04:58:45;;;;;;;2.97;1.60;;;;;;;;;;5068842;28;20025;-76
2022/05/21 05:01:11;;;;;;;4.10;1.40;;;;;;;;;;5043944;28;20028;-75
2022/05/21 05:03:36;;;;;;;4.25;1.60;;;;;;;;;;5043147;28;20028;-74
2022/05/21 05:06:02;;;;;;;3.75;1.50;;;;;;;;;;5068371;28;20430;-76
2022/05/21 05:08:27;;;;;;;4.32;1.50;;;;;;;;;;5038935;28;20424;-76
2022/05/21 05:10:53;;;;;;;5.03;1.60;;;;;;;;;;5049409;28;20507;-77
2022/05/21 05:13:18;;;;;;;3.17;1.45;;;;;;;;;;5064029;28;20021;-74
2022/05/21 05:15:45;;;;;;;3.25;1.55;;;;;;;;;;5071263;28;20634;-76
2022/05/21 05:18:12;;;;;;;4.00;1.50;;;;;;;;;;5057026;28;20096;-75
2022/05/21 05:20:37;;;;;;;5.60;1.42;;;;;;;;;;5069453;28;20040;-75
2022/05/21 05:23:04;;;;;;;4.38;1.40;;;;;;;;;;5060478;28;20025;-75
2022/05/21 05:25:30;;;;;;;4.32;1.55;;;;;;;;;;5055094;28;20024;-77
2022/05/21 05:27:55;;;;;;;4.85;1.60;;;;;;;;;;5073250;28;20410;-76
2022/05/21 05:30:22;;;;;;;3.70;1.23;;;;;;;;;;5054994;28;20546;-76
2022/05/21 05:32:47;;;;;;;5.80;1.55;;;;;;;;;;5049747;28;20032;-76
2022/05/21 05:35:14;;;;;;;6.75;1.30;;;;;;;;;;5061668;28;20387;-76
2022/05/21 05:37:40;;;;;;;5.75;1.58;;;;;;;;;;5061198;28;20025;-75
2022/05/21 05:40:07;;;;;;;7.22;1.90;;;;;;;;;;5069252;28;20035;-76
2022/05/21 05:42:37;;;;;;;3.43;1.23;;;;;;;;;;5039091;28;20398;-76
2022/05/21 05:45:04;;;;;;;5.20;1.30;;;;;;;;;;5065423;28;20276;-76
2022/05/21 05:47:31;;;;;;;2.95;1.23;;;;;;;;;;5046009;28;20029;-75
2022/05/21 05:49:57;;;;;;;3.35;1.27;;;;;;;;;;5041028;28;20056;-77
2022/05/21 05:52:22;;;;;;;4.43;1.50;;;;;;;;;;5052305;28;20025;-76
2022/05/21 05:54:48;;;;;;;3.00;1.40;;;;;;;;;;5056822;28;20453;-76
2022/05/21 05:57:13;;;;;;;3.28;1.40;;;;;;;;;;5064757;28;20032;-75
2022/05/21 05:59:51;;;;;;;6.38;1.98;;;;;;;;;;5065643;28;20029;-75
2022/05/21 06:05:02;;;;;;;5.97;1.92;;;;;;;;;;5058584;28;20021;-75
2022/05/21 06:07:28;;;;;;;3.30;1.85;;;;;;;;;;5072163;28;20511;-74
2022/05/21 06:10:00;;;;;;;5.03;1.83;;;;;;;;;;5058600;28;20029;-76
2022/05/21 06:12:26;;;;;;;4.10;2.00;;;;;;;;;;5070036;28;20487;-76
2022/05/21 06:14:53;;;;;;;3.72;1.65;;;;;;;;;;5055118;28;20046;-76
2022/05/21 06:17:19;;;;;;;7.78;1.92;;;;;;;;;;5054839;28;20110;-74
2022/05/21 06:19:45;;;;;;;4.75;2.10;;;;;;;;;;5053949;28;20412;-77
2022/05/21 06:22:10;;;;;;;4.22;1.77;;;;;;;;;;5051410;28;20134;-77
2022/05/21 06:24:36;;;;;;;5.28;1.83;;;;;;;;;;5068885;28;20017;-77
2022/05/21 06:27:02;;;;;;;5.97;1.75;;;;;;;;;;5026033;28;20495;-75
2022/05/21 06:29:27;;;;;;;3.33;2.00;;;;;;;;;;5062620;28;20060;-75
2022/05/21 06:31:53;;;;;;;4.53;2.08;;;;;;;;;;5066744;28;20032;-76
2022/05/21 06:34:19;;;;;;;6.57;2.35;;;;;;;;;;5056591;28;20032;-76
2022/05/21 06:36:44;;;;;;;4.60;2.30;;;;;;;;;;5068152;28;20037;-76
2022/05/21 06:39:10;;;;;;;6.60;2.17;;;;;;;;;;5043291;28;20067;-75
2022/05/21 06:41:36;;;;;;;5.85;2.30;;;;;;;;;;5043296;28;20460;-76
2022/05/21 06:44:02;;;;;;;5.93;2.22;;;;;;;;;;5067525;28;20423;-76
2022/05/21 06:46:27;;;;;;;11.82;2.70;;;;;;;;;;5056647;28;20029;-77
2022/05/21 06:48:53;;;;;;;5.72;2.10;;;;;;;;;;5057186;28;20400;-78
2022/05/21 06:51:19;;;;;;;5.78;2.35;;;;;;;;;;5069367;28;20064;-76
2022/05/21 06:53:45;;;;;;;5.63;2.22;;;;;;;;;;5065704;28;20504;-77
2022/05/21 06:56:12;;;;;;;7.30;2.20;;;;;;;;;;5070995;28;20075;-76
2022/05/21 06:58:38;;;;;;;4.28;1.90;;;;;;;;;;5041431;28;20476;-78
2022/05/21 07:01:04;;;;;;;6.38;2.00;;;;;;;;;;5068772;28;20124;-76
2022/05/21 07:03:29;;;;;;;4.20;1.55;;;;;;;;;;5051216;28;20032;-75
2022/05/21 07:08:39;;;;;;;4.50;1.70;;;;;;;;;;5056921;28;20511;-77
2022/05/21 07:11:06;;;;;;;5.60;1.70;;;;;;;;;;5063155;28;20024;-77
2022/05/21 07:13:31;;;;;;;4.95;1.70;;;;;;;;;;5056347;28;20029;-76
2022/05/21 07:15:57;;;;;;;4.68;1.70;;;;;;;;;;5073319;28;20058;-78
2022/05/21 07:18:26;;;;;;;3.75;1.80;;;;;;;;;;5040242;28;20029;-76
2022/05/21 07:20:52;;;;;;;4.47;1.83;;;;;;;;;;5056158;28;20037;-77
2022/05/21 07:23:18;;;;;;;3.55;1.55;;;;;;;;;;5065331;28;20017;-76
2022/05/21 07:25:44;;;;;;;5.03;1.88;;;;;;;;;;5045469;28;20442;-77
2022/05/21 07:28:10;;;;;;;6.22;1.58;;;;;;;;;;5075650;28;20032;-77
2022/05/21 07:30:37;;;;;;;6.15;1.80;;;;;;;;;;5027263;28;20024;-78
2022/05/21 07:33:03;;;;;;;4.25;1.35;;;;;;;;;;5070858;28;20037;-77
2022/05/21 07:35:28;;;;;;;4.30;1.63;;;;;;;;;;5070251;28;20059;-77
2022/05/21 07:37:54;;;;;;;4.07;1.60;;;;;;;;;;5051444;28;20024;-76
2022/05/21 07:40:21;;;;;;;5.10;1.70;;;;;;;;;;5087864;28;20032;-77
2022/05/21 07:42:46;;;;;;;3.35;1.55;;;;;;;;;;5060247;28;20056;-76
2022/05/21 07:45:13;;;;;;;5.65;1.70;;;;;;;;;;5087615;28;20037;-77
2022/05/21 07:47:39;;;;;;;4.75;1.83;;;;;;;;;;5083931;28;20040;-78
2022/05/21 07:50:04;;;;;;;3.03;1.45;;;;;;;;;;5073951;28;20024;-76
2022/05/21 07:52:30;;;;;;;6.07;1.80;;;;;;;;;;5094748;28;20021;-77
2022/05/21 07:54:56;;;;;;;3.45;1.70;;;;;;;;;;5082537;28;20101;-76
2022/05/21 07:57:22;;;;;;;4.80;1.80;;;;;;;;;;5086791;28;20036;-76
2022/05/21 07:59:48;;;;;;;5.22;1.67;;;;;;;;;;5089193;28;20020;-77
2022/05/21 08:02:17;;;;;;;4.45;1.70;;;;;;;;;;5080652;28;20021;-78
2022/05/21 08:04:43;;;;;;;5.30;2.17;;;;;;;;;;5091432;28;20045;-78
2022/05/21 08:07:09;;;;;;;3.17;1.60;;;;;;;;;;5084552;28;20020;-77
2022/05/21 08:09:35;;;;;;;4.47;2.47;;;;;;;;;;5083563;28;20055;-77
2022/05/21 08:12:01;;;;;;;4.32;2.38;;;;;;;;;;5089866;28;20065;-76
2022/05/21 08:14:27;;;;;;;5.03;2.17;;;;;;;;;;5075391;28;20622;-76
2022/05/21 08:16:52;;;;;;;5.60;2.47;;;;;;;;;;5087674;28;20060;-78
2022/05/21 08:19:18;;;;;;;4.65;1.85;;;;;;;;;;5071680;28;20025;-76
2022/05/21 08:21:50;;;;;;;4.72;2.33;;;;;;;;;;5077087;28;20024;-75
2022/05/21 08:27:01;;;;;;;7.57;2.47;;;;;;;;;;5064233;28;20035;-78
2022/05/21 08:29:31;;;;;;;5.28;2.30;;;;;;;;;;5069881;28;20024;-77
2022/05/21 08:31:57;;;;;;;10.65;2.63;;;;;;;;;;5050958;28;20036;-76
2022/05/21 08:34:24;;;;;;;3.88;1.67;;;;;;;;;;5081583;28;20037;-77
2022/05/21 08:36:49;;;;;;;4.45;1.90;;;;;;;;;;5067741;28;20107;-77
2022/05/21 08:39:15;;;;;;;8.07;2.10;;;;;;;;;;5035876;28;20033;-78
2022/05/21 08:41:54;;;;;;;4.32;1.80;;;;;;;;;;5059521;28;20025;-77
2022/05/21 08:44:27;;;;;;;7.38;1.90;;;;;;;;;;5057150;28;20036;-76
2022/05/21 08:46:59;;;;;;;5.55;2.47;;;;;;;;;;5042003;28;20544;-76
2022/05/21 08:49:43;;;;;;;5.65;2.13;;;;;;;;;;5070843;28;20074;-76
2022/05/21 08:52:27;;;;;;;5.07;2.28;;;;;;;;;;5064583;28;20024;-76
2022/05/21 08:54:54;;;;;;;6.13;2.15;;;;;;;;;;5058822;28;20082;-77
2022/05/21 08:57:27;;;;;;;4.75;2.22;;;;;;;;;;5065057;28;20029;-76
2022/05/21 09:00:04;;;;;;;3.80;2.10;;;;;;;;;;5075862;28;20033;-77
2022/05/21 09:02:31;;;;;;;4.57;1.88;;;;;;;;;;5066280;28;20456;-75
2022/05/21 09:05:02;;;;;;;4.78;1.98;;;;;;;;;;5071479;28;20074;-76
2022/05/21 09:07:30;;;;;;;5.63;2.00;;;;;;;;;;5060649;28;20024;-76
2022/05/21 09:10:02;;;;;;;4.40;1.65;;;;;;;;;;5084349;28;20020;-77
2022/05/21 09:12:33;;;;;;;3.50;1.52;;;;;;;;;;5064703;28;20037;-75
2022/05/21 09:15:02;;;;;;;5.25;1.75;;;;;;;;;;5077740;28;20085;-77
2022/05/21 09:17:28;;;;;;;5.95;1.70;;;;;;;;;;5065253;28;20017;-77
2022/05/21 09:19:57;;;;;;;5.28;1.90;;;;;;;;;;5037805;28;20045;-76
2022/05/21 09:22:23;;;;;;;8.38;1.90;;;;;;;;;;5073359;28;20035;-77
2022/05/21 09:24:59;;;;;;;9.15;1.80;;;;;;;;;;5048012;28;20416;-77
2022/05/21 09:27:27;;;;;;;5.43;1.92;;;;;;;;;;5058177;28;20419;-76
2022/05/21 09:30:09;;;;;;;5.63;1.95;;;;;;;;;;5069571;28;20454;-76
2022/05/21 09:32:36;;;;;;;3.30;1.50;;;;;;;;;;5060980;28;20029;-76
2022/05/21 09:35:08;;;;;;;6.55;1.83;;;;;;;;;;5058178;28;20040;-75
2022/05/21 09:37:34;;;;;;;6.97;1.70;;;;;;;;;;5047079;28;20048;-76
2022/05/21 09:40:00;;;;;;;4.28;1.90;;;;;;;;;;5053937;28;20041;-77
2022/05/21 09:45:24;;;;;;;4.68;1.77;;;;;;;;;;5041168;28;20480;-77
2022/05/21 09:48:05;;;;;;;7.97;2.00;;;;;;;;;;5073692;28;20033;-77
2022/05/21 09:50:53;;;;;;;6.32;1.80;;;;;;;;;;5060965;28;20033;-77
2022/05/21 09:53:31;;;;;;;3.38;1.70;;;;;;;;;;5034198;28;20033;-74
2022/05/21 09:55:58;;;;;;;4.90;2.08;;;;;;;;;;5085824;28;20039;-77
2022/05/21 09:58:24;;;;;;;8.80;2.50;;;;;;;;;;5047718;28;20035;-76
2022/05/21 10:00:57;;;;;;;2.17;1.20;;;;;;;;;;5061675;28;20488;-78
2022/05/21 10:03:42;;;;;;;4.35;1.67;;;;;;;;;;5050353;28;20059;-76
2022/05/21 10:06:15;;;;;;;4.47;1.80;;;;;;;;;;5074052;28;20036;-77
2022/05/21 10:11:47;;;;;;;7.45;2.42;;;;;;;;;;5068328;28;20032;-77
2022/05/21 10:14:32;;;;;;;5.90;1.88;;;;;;;;;;5078447;28;20025;-76
2022/05/21 10:16:59;;;;;;;7.68;2.00;;;;;;;;;;5068950;28;20039;-78
2022/05/21 10:19:25;;;;;;;5.13;1.85;;;;;;;;;;5082284;28;20060;-77
2022/05/21 10:22:00;;;;;;;7.38;2.55;;;;;;;;;;5067936;28;20043;-76
2022/05/21 10:24:44;;;;;;;6.20;2.17;;;;;;;;;;5077227;28;20029;-78
2022/05/21 10:27:14;;;;;;;4.40;2.00;;;;;;;;;;5070793;28;20034;-79
2022/05/21 10:29:50;;;;;;;3.83;1.77;;;;;;;;;;5074234;28;20024;-77
2022/05/21 10:32:23;;;;;;;4.68;2.13;;;;;;;;;;5058049;28;20059;-75
2022/05/21 10:34:49;;;;;;;6.38;1.95;;;;;;;;;;5065191;28;20100;-76
2022/05/21 10:37:26;;;;;;;4.75;1.83;;;;;;;;;;5042714;28;20071;-76
2022/05/21 10:40:07;;;;;;;6.93;1.70;;;;;;;;;;5067550;28;20036;-77
2022/05/21 10:42:51;;;;;;;4.30;1.77;;;;;;;;;;5048709;28;20115;-76
2022/05/21 10:45:40;;;;;;;3.55;1.67;;;;;;;;;;5037905;28;20504;-75
2022/05/21 10:48:06;;;;;;;5.13;1.58;;;;;;;;;;5033997;28;20036;-77
2022/05/21 10:50:37;;;;;;;5.57;1.80;;;;;;;;;;5051256;28;20028;-76
2022/05/21 10:53:21;;;;;;;7.78;1.60;;;;;;;;;;5068617;28;20112;-75
2022/05/21 10:56:06;;;;;;;11.07;1.55;;;;;;;;;;5058432;28;20078;-75
2022/05/21 10:58:43;;;;;;;2.50;1.40;;;;;;;;;;5041685;28;20095;-76
2022/05/21 11:01:12;;;;;;;2.95;1.38;;;;;;;;;;5068832;28;20060;-76
2022/05/21 11:03:41;;;;;;;8.73;1.50;;;;;;;;;;5038841;28;20020;-76
2022/05/21 11:06:12;;;;;;;4.63;1.23;;;;;;;;;;5063190;28;20025;-76
2022/05/21 11:08:38;;;;;;;3.85;1.40;;;;;;;;;;5065039;28;20048;-77
2022/05/21 11:11:16;;;;;;;6.35;2.45;;;;;;;;;;5055036;28;20067;-75
2022/05/21 11:13:45;;;;;;;3.90;1.20;;;;;;;;;;5047951;28;20107;-75
2022/05/21 11:16:13;;;;;;;5.55;1.60;;;;;;;;;;5051889;28;20021;-75
2022/05/21 11:18:51;;;;;;;3.15;1.50;;;;;;;;;;5049937;28;20108;-76
2022/05/21 11:21:23;;;;;;;6.53;1.45;;;;;;;;;;5051392;28;20111;-77
2022/05/21 11:23:55;;;;;;;5.10;1.30;;;;;;;;;;5045952;28;20041;-77
2022/05/21 11:26:29;;;;;;;3.78;1.30;;;;;;;;;;5044795;28;20025;-76
2022/05/21 11:29:02;;;;;;;3.45;1.38;;;;;;;;;;5055323;28;20025;-75
2022/05/21 11:37:23;;;;;;;8.23;1.83;;;;;;;;;;5049910;28;20033;-75
2022/05/21 11:39:53;;;;;;;4.15;1.35;;;;;;;;;;5033157;28;20029;-77
2022/05/21 11:42:27;;;;;;;4.57;1.27;;;;;;;;;;5043612;28;20115;-75
2022/05/21 11:44:59;;;;;;;6.20;1.50;;;;;;;;;;5055369;28;20032;-77
2022/05/21 11:47:33;;;;;;;6.70;1.15;;;;;;;;;;5049913;28;20085;-77
2022/05/21 11:50:01;;;;;;;3.70;1.20;;;;;;;;;;5028142;28;20503;-75
2022/05/21 11:52:27;;;;;;;3.10;1.40;;;;;;;;;;5063796;28;20025;-75
2022/05/21 11:54:53;;;;;;;4.93;1.30;;;;;;;;;;5043919;28;20377;-74
2022/05/21 11:57:41;;;;;;;3.60;1.30;;;;;;;;;;5052688;28;20029;-75
2022/05/21 12:00:25;;;;;;;7.93;1.60;;;;;;;;;;5065140;28;20040;-76
2022/05/21 12:02:54;;;;;;;2.38;1.13;;;;;;;;;;5070040;28;20032;-74
2022/05/21 12:05:37;;;;;;;4.40;1.20;;;;;;;;;;5056693;28;20097;-75
2022/05/21 12:08:15;;;;;;;3.78;1.42;;;;;;;;;;5073673;28;20037;-75
2022/05/21 12:10:52;;;;;;;13.23;1.30;;;;;;;;;;5042491;28;20112;-74
2022/05/21 12:13:21;;;;;;;2.85;1.48;;;;;;;;;;5053800;28;20027;-76
2022/05/21 12:15:49;;;;;;;6.32;1.35;;;;;;;;;;5062746;28;20597;-76
2022/05/21 12:18:37;;;;;;;2.40;1.20;;;;;;;;;;5064401;28;20032;-76
2022/05/21 12:21:03;;;;;;;4.82;1.20;;;;;;;;;;5055899;28;20024;-75
2022/05/21 12:23:31;;;;;;;2.95;1.30;;;;;;;;;;5070183;28;20021;-75
2022/05/21 12:26:00;;;;;;;7.30;1.30;;;;;;;;;;5063240;28;20035;-75
2022/05/21 12:28:31;;;;;;;3.70;1.30;;;;;;;;;;5065529;28;20084;-76
2022/05/21 12:31:01;;;;;;;4.18;1.30;;;;;;;;;;5042124;28;20036;-76
2022/05/21 12:33:38;;;;;;;3.55;1.40;;;;;;;;;;5068527;28;20023;-76
2022/05/21 12:36:23;;;;;;;4.72;1.75;;;;;;;;;;5072620;28;20079;-76
2022/05/21 12:38:49;;;;;;;5.95;1.55;;;;;;;;;;5076702;28;20476;-76
2022/05/21 12:41:32;;;;;;;4.45;1.58;;;;;;;;;;5058537;28;20040;-75
2022/05/21 12:44:01;;;;;;;4.07;1.40;;;;;;;;;;5023686;28;20078;-75
2022/05/21 12:46:29;;;;;;;4.07;1.50;;;;;;;;;;5060194;28;20151;-75
2022/05/21 12:48:57;;;;;;;4.28;1.30;;;;;;;;;;5036065;28;20488;-76
2022/05/21 12:51:28;;;;;;;4.55;1.23;;;;;;;;;;5057593;28;20048;-75
2022/05/21 12:53:55;;;;;;;5.95;1.30;;;;;;;;;;5065473;28;20566;-75
2022/05/21 12:56:24;;;;;;;4.28;1.33;;;;;;;;;;5064941;28;20064;-75
2022/05/21 12:58:49;;;;;;;;;;;;;;;;;;5058475;28;20037;-76
2022/05/21 13:01:22;;;;;;;4.35;1.48;;;;;;;;;;5069875;28;19916;-76
2022/05/21 13:03:47;;;;;;;7.50;1.55;;;;;;;;;;5035762;28;20079;-76
2022/05/21 13:06:17;;;;;;;5.90;1.25;;;;;;;;;;5046301;28;20429;-75
2022/05/21 13:08:42;;;;;;;4.15;1.35;;;;;;;;;;5041237;28;20032;-75
2022/05/21 13:11:14;;;;;;;3.97;1.33;;;;;;;;;;5068880;28;20024;-76
2022/05/21 13:13:40;;;;;;;4.10;1.30;;;;;;;;;;5059433;28;20044;-75
2022/05/21 13:16:07;;;;;;;3.72;1.23;;;;;;;;;;5071494;28;20113;-75
2022/05/21 13:18:52;;;;;;;17.55;2.00;;;;;;;;;;5024829;28;20514;-75
2022/05/21 13:21:24;;;;;;;3.22;1.08;;;;;;;;;;5069153;28;20032;-75
2022/05/21 13:23:55;;;;;;;5.47;1.50;;;;;;;;;;5059685;28;20452;-76
2022/05/21 13:26:23;;;;;;;4.57;1.60;;;;;;;;;;5083961;22;20044;-78
2022/05/21 13:28:49;;;;;;;4.65;1.52;;;;;;;;;;5071658;28;20047;-79
2022/05/21 13:31:19;;;;;;;7.15;1.45;;;;;;;;;;5055822;28;20028;-78
2022/05/21 13:33:50;;;;;;;4.30;1.48;;;;;;;;;;5076409;28;20032;-78
2022/05/21 13:36:18;;;;;;;3.97;1.30;;;;;;;;;;5062522;28;20058;-78
2022/05/21 13:38:45;;;;;;;3.70;1.33;;;;;;;;;;5081355;28;20526;-79
2022/05/21 13:41:12;;;;;;;4.53;1.30;;;;;;;;;;5078371;28;20491;-77
2022/05/21 13:43:42;;;;;;;6.73;1.40;;;;;;;;;;5075632;28;20514;-78
2022/05/21 13:46:08;;;;;;;3.30;1.92;;;;;;;;;;5056686;28;20476;-76
2022/05/21 13:48:42;;;;;;;8.68;1.30;;;;;;;;;;5073431;28;20021;-76
2022/05/21 13:51:12;;;;;;;3.10;1.23;;;;;;;;;;5074359;28;20111;-78
2022/05/21 13:53:37;;;;;;;5.28;1.40;;;;;;;;;;5073545;28;20087;-76
2022/05/21 13:56:05;;;;;;;4.78;1.40;;;;;;;;;;5073642;28;20471;-79
2022/05/21 13:58:34;;;;;;;5.60;1.40;;;;;;;;;;5056918;28;20043;-77
2022/05/21 14:01:01;;;;;;;4.63;1.30;;;;;;;;;;5073165;28;20116;-80
2022/05/21 14:03:32;;;;;;;4.47;1.33;;;;;;;;;;5071158;28;20016;-79
2022/05/21 14:06:02;;;;;;;5.47;1.30;;;;;;;;;;5072636;28;20029;-78
2022/05/21 14:08:30;;;;;;;6.43;1.40;;;;;;;;;;5072785;28;20056;-79
2022/05/21 14:10:57;;;;;;;7.40;1.52;;;;;;;;;;5055341;28;20028;-78
2022/05/21 14:13:29;;;;;;;4.72;1.38;;;;;;;;;;5051209;28;20024;-78
2022/05/21 14:15:55;;;;;;;9.48;1.90;;;;;;;;;;5062778;28;20043;-78
2022/05/21 14:18:29;;;;;;;4.05;1.67;;;;;;;;;;5061406;28;20077;-78
2022/05/21 14:21:01;;;;;;;7.63;1.80;;;;;;;;;;5075745;28;20116;-78
2022/05/21 14:23:30;;;;;;;6.13;1.40;;;;;;;;;;5067742;28;20020;-78
2022/05/21 14:26:11;;;;;;;4.10;1.50;;;;;;;;;;5048644;28;20044;-77
2022/05/21 14:28:38;;;;;;;9.98;1.52;;;;;;;;;;5092093;28;20042;-80
2022/05/21 14:31:22;;;;;;;5.22;1.60;;;;;;;;;;5084802;28;20032;-76
2022/05/21 14:33:53;;;;;;;3.33;1.45;;;;;;;;;;5086532;28;20032;-77
2022/05/21 14:36:32;;;;;;;3.92;1.38;;;;;;;;;;5075797;28;20040;-79
2022/05/21 14:39:00;;;;;;;5.13;1.60;;;;;;;;;;5092622;28;20033;-79
2022/05/21 14:41:31;;;;;;;7.95;1.70;;;;;;;;;;5074065;28;20241;-78
2022/05/21 14:43:58;;;;;;;4.57;1.50;;;;;;;;;;5089130;28;20027;-77
2022/05/21 14:49:07;;;;;;;5.15;1.33;;;;;;;;;;5079703;28;20036;-79
2022/05/21 14:54:18;;;;;;;6.35;1.58;;;;;;;;;;5075451;28;20471;-80
2022/05/21 14:56:44;;;;;;;8.13;1.58;;;;;;;;;;5078960;28;20025;-79
2022/05/21 14:59:09;;;;;;;8.93;2.03;;;;;;;;;;5078505;28;20063;-79
2022/05/21 15:01:35;;;;;;;5.30;1.48;;;;;;;;;;5077364;28;20389;-79
2022/05/21 15:04:02;;;;;;;6.10;1.65;;;;;;;;;;5080250;28;20032;-80
2022/05/21 15:06:30;;;;;;;4.65;1.50;;;;;;;;;;5077475;28;20345;-78
2022/05/21 15:08:57;;;;;;;3.97;1.30;;;;;;;;;;5078260;28;20021;-80
2022/05/21 15:11:24;;;;;;;4.07;1.42;;;;;;;;;;5063868;28;20451;-80
2022/05/21 15:13:49;;;;;;;5.60;1.35;;;;;;;;;;5076300;28;20033;-77
2022/05/21 15:16:15;;;;;;;6.75;1.70;;;;;;;;;;5073670;28;20037;-77
2022/05/21 15:18:41;;;;;;;5.75;1.67;;;;;;;;;;5072177;28;20040;-77
2022/05/21 15:21:10;;;;;;;7.45;1.67;;;;;;;;;;5072157;28;20032;-77
2022/05/21 15:23:35;;;;;;;6.85;1.65;;;;;;;;;;5072099;28;20024;-78
2022/05/21 15:26:01;;;;;;;4.38;1.55;;;;;;;;;;5077752;28;20402;-77
2022/05/21 15:28:26;;;;;;;5.25;1.40;;;;;;;;;;5074683;28;20490;-79